Terminal Aerodrome Forecast
Issued by NWS

Home | Current Version | Previous Version | Graphics & Text | Print | Product List | Glossary On
Versions: 1 2 3 4 5 6 7 8 9 10 11 12 13 14 15 16 17 18
000
FTUS43 KMPX 151700
TAFRNH
TAF
KRNH 151730Z 1518/1618 02008KT 1SM RA BR OVC001
      TEMPO 1601/1603 -RAPLSN
     FM160300 33020G28KT 3/4SM -SN BR OVC005
     FM160800 33018G26KT 4SM -SN BR OVC012
     FM161400 34015G22KT P6SM OVC015=

USA.gov is the U.S. government's official web portal to all federal, state and local government web resources and services.